sensor_id;sensor_type;location;lat;lon;timestamp;P1;durP1;ratioP1;P2;durP2;ratioP2
12792;SDS011;6460;42.684;23.260;2022-12-18T00:00:13;8.20;;;5.30;;
12792;SDS011;6460;42.684;23.260;2022-12-18T00:02:40;7.40;;;5.60;;
12792;SDS011;6460;42.684;23.260;2022-12-18T00:05:07;7.70;;;5.57;;
12792;SDS011;6460;42.684;23.260;2022-12-18T00:07:35;7.33;;;5.43;;
12792;SDS011;6460;42.684;23.260;2022-12-18T00:10:02;7.53;;;6.30;;
12792;SDS011;6460;42.684;23.260;2022-12-18T00:12:29;7.83;;;6.07;;
12792;SDS011;6460;42.684;23.260;2022-12-18T00:14:58;8.07;;;5.87;;
12792;SDS011;6460;42.684;23.260;2022-12-18T00:17:24;6.67;;;5.60;;
12792;SDS011;6460;42.684;23.260;2022-12-18T00:19:51;7.30;;;6.10;;
12792;SDS011;6460;42.684;23.260;2022-12-18T00:22:18;8.13;;;6.67;;
12792;SDS011;6460;42.684;23.260;2022-12-18T00:24:45;8.43;;;6.03;;
12792;SDS011;6460;42.684;23.260;2022-12-18T00:27:12;8.33;;;5.97;;
12792;SDS011;6460;42.684;23.260;2022-12-18T00:29:39;8.33;;;6.37;;
12792;SDS011;6460;42.684;23.260;2022-12-18T00:32:07;7.73;;;6.27;;
12792;SDS011;6460;42.684;23.260;2022-12-18T00:34:34;7.67;;;6.50;;
12792;SDS011;6460;42.684;23.260;2022-12-18T00:37:01;7.87;;;6.13;;
12792;SDS011;6460;42.684;23.260;2022-12-18T00:39:28;8.47;;;6.87;;
12792;SDS011;6460;42.684;23.260;2022-12-18T00:41:54;9.37;;;7.33;;
12792;SDS011;6460;42.684;23.260;2022-12-18T00:44:39;8.47;;;6.50;;
12792;SDS011;6460;42.684;23.260;2022-12-18T00:47:07;7.83;;;6.50;;
12792;SDS011;6460;42.684;23.260;2022-12-18T00:49:34;11.23;;;7.03;;
12792;SDS011;6460;42.684;23.260;2022-12-18T00:52:01;7.80;;;6.13;;
12792;SDS011;6460;42.684;23.260;2022-12-18T00:54:28;7.93;;;6.20;;
12792;SDS011;6460;42.684;23.260;2022-12-18T00:56:55;7.97;;;6.33;;
12792;SDS011;6460;42.684;23.260;2022-12-18T00:59:22;8.97;;;6.90;;
12792;SDS011;6460;42.684;23.260;2022-12-18T01:01:48;8.57;;;6.80;;
12792;SDS011;6460;42.684;23.260;2022-12-18T01:04:17;8.77;;;6.23;;
12792;SDS011;6460;42.684;23.260;2022-12-18T01:06:44;6.83;;;6.13;;
12792;SDS011;6460;42.684;23.260;2022-12-18T01:09:10;7.23;;;6.17;;
12792;SDS011;6460;42.684;23.260;2022-12-18T01:11:37;6.93;;;6.17;;
12792;SDS011;6460;42.684;23.260;2022-12-18T01:14:04;9.20;;;6.93;;
12792;SDS011;6460;42.684;23.260;2022-12-18T01:16:31;7.27;;;5.93;;
12792;SDS011;6460;42.684;23.260;2022-12-18T01:18:58;9.80;;;7.30;;
12792;SDS011;6460;42.684;23.260;2022-12-18T01:21:26;9.23;;;7.30;;
12792;SDS011;6460;42.684;23.260;2022-12-18T01:23:54;7.77;;;6.97;;
12792;SDS011;6460;42.684;23.260;2022-12-18T01:26:22;9.53;;;7.30;;
12792;SDS011;6460;42.684;23.260;2022-12-18T01:28:49;8.17;;;6.97;;
12792;SDS011;6460;42.684;23.260;2022-12-18T01:31:17;8.23;;;6.73;;
12792;SDS011;6460;42.684;23.260;2022-12-18T01:33:45;9.70;;;6.90;;
12792;SDS011;6460;42.684;23.260;2022-12-18T01:36:16;9.27;;;7.33;;
12792;SDS011;6460;42.684;23.260;2022-12-18T01:38:46;13.40;;;8.00;;
12792;SDS011;6460;42.684;23.260;2022-12-18T01:41:14;10.27;;;8.30;;
12792;SDS011;6460;42.684;23.260;2022-12-18T01:43:43;10.87;;;7.70;;
12792;SDS011;6460;42.684;23.260;2022-12-18T01:46:11;11.17;;;7.87;;
12792;SDS011;6460;42.684;23.260;2022-12-18T01:48:38;9.87;;;7.60;;
12792;SDS011;6460;42.684;23.260;2022-12-18T01:51:07;9.43;;;7.60;;
12792;SDS011;6460;42.684;23.260;2022-12-18T01:53:36;9.30;;;7.23;;
12792;SDS011;6460;42.684;23.260;2022-12-18T01:56:06;8.17;;;6.63;;
12792;SDS011;6460;42.684;23.260;2022-12-18T01:58:36;9.07;;;7.67;;
12792;SDS011;6460;42.684;23.260;2022-12-18T02:01:08;9.17;;;6.30;;
12792;SDS011;6460;42.684;23.260;2022-12-18T02:03:36;8.70;;;6.83;;
12792;SDS011;6460;42.684;23.260;2022-12-18T02:06:05;7.83;;;6.77;;
12792;SDS011;6460;42.684;23.260;2022-12-18T02:08:40;9.47;;;7.33;;
12792;SDS011;6460;42.684;23.260;2022-12-18T02:11:15;9.50;;;7.60;;
12792;SDS011;6460;42.684;23.260;2022-12-18T02:13:53;8.93;;;7.37;;
12792;SDS011;6460;42.684;23.260;2022-12-18T02:16:29;8.83;;;7.10;;
12792;SDS011;6460;42.684;23.260;2022-12-18T02:19:03;9.00;;;7.07;;
12792;SDS011;6460;42.684;23.260;2022-12-18T02:21:40;7.87;;;6.37;;
12792;SDS011;6460;42.684;23.260;2022-12-18T02:24:17;9.27;;;6.60;;
12792;SDS011;6460;42.684;23.260;2022-12-18T02:26:52;7.40;;;6.07;;
12792;SDS011;6460;42.684;23.260;2022-12-18T02:29:26;10.40;;;6.83;;
12792;SDS011;6460;42.684;23.260;2022-12-18T02:31:58;8.73;;;6.40;;
12792;SDS011;6460;42.684;23.260;2022-12-18T02:34:27;6.93;;;6.07;;
12792;SDS011;6460;42.684;23.260;2022-12-18T02:36:57;9.53;;;6.50;;
12792;SDS011;6460;42.684;23.260;2022-12-18T02:39:27;8.20;;;7.00;;
12792;SDS011;6460;42.684;23.260;2022-12-18T02:41:58;8.40;;;6.40;;
12792;SDS011;6460;42.684;23.260;2022-12-18T02:44:27;8.53;;;6.87;;
12792;SDS011;6460;42.684;23.260;2022-12-18T02:46:54;7.90;;;6.77;;
12792;SDS011;6460;42.684;23.260;2022-12-18T02:49:26;9.43;;;7.10;;
12792;SDS011;6460;42.684;23.260;2022-12-18T02:52:02;9.27;;;6.70;;
12792;SDS011;6460;42.684;23.260;2022-12-18T02:54:41;10.17;;;6.07;;
12792;SDS011;6460;42.684;23.260;2022-12-18T02:57:27;9.57;;;7.27;;
12792;SDS011;6460;42.684;23.260;2022-12-18T03:00:02;8.70;;;6.50;;
12792;SDS011;6460;42.684;23.260;2022-12-18T03:02:34;8.47;;;6.80;;
12792;SDS011;6460;42.684;23.260;2022-12-18T03:05:08;9.13;;;6.83;;
12792;SDS011;6460;42.684;23.260;2022-12-18T03:07:40;8.73;;;6.27;;
12792;SDS011;6460;42.684;23.260;2022-12-18T03:10:11;8.17;;;5.83;;
12792;SDS011;6460;42.684;23.260;2022-12-18T03:12:45;7.23;;;5.50;;
12792;SDS011;6460;42.684;23.260;2022-12-18T03:15:17;10.33;;;6.53;;
12792;SDS011;6460;42.684;23.260;2022-12-18T03:17:48;8.33;;;6.87;;
12792;SDS011;6460;42.684;23.260;2022-12-18T03:20:19;12.37;;;6.80;;
12792;SDS011;6460;42.684;23.260;2022-12-18T03:22:49;10.50;;;7.30;;
12792;SDS011;6460;42.684;23.260;2022-12-18T03:25:20;8.77;;;7.40;;
12792;SDS011;6460;42.684;23.260;2022-12-18T03:27:51;8.60;;;7.17;;
12792;SDS011;6460;42.684;23.260;2022-12-18T03:30:22;7.93;;;7.10;;
12792;SDS011;6460;42.684;23.260;2022-12-18T03:32:52;7.73;;;6.53;;
12792;SDS011;6460;42.684;23.260;2022-12-18T03:35:26;8.90;;;6.37;;
12792;SDS011;6460;42.684;23.260;2022-12-18T03:37:55;9.53;;;7.47;;
12792;SDS011;6460;42.684;23.260;2022-12-18T03:40:24;7.73;;;6.40;;
12792;SDS011;6460;42.684;23.260;2022-12-18T03:42:58;8.57;;;6.80;;
12792;SDS011;6460;42.684;23.260;2022-12-18T03:45:32;6.23;;;5.07;;
12792;SDS011;6460;42.684;23.260;2022-12-18T03:48:04;7.20;;;5.93;;
12792;SDS011;6460;42.684;23.260;2022-12-18T03:50:37;7.53;;;5.30;;
12792;SDS011;6460;42.684;23.260;2022-12-18T03:53:18;6.60;;;5.27;;
12792;SDS011;6460;42.684;23.260;2022-12-18T03:55:52;8.40;;;5.67;;
12792;SDS011;6460;42.684;23.260;2022-12-18T03:58:23;7.57;;;5.77;;
12792;SDS011;6460;42.684;23.260;2022-12-18T04:00:52;6.40;;;5.07;;
12792;SDS011;6460;42.684;23.260;2022-12-18T04:03:22;7.73;;;5.83;;
12792;SDS011;6460;42.684;23.260;2022-12-18T04:05:50;7.93;;;5.87;;
12792;SDS011;6460;42.684;23.260;2022-12-18T04:08:18;8.03;;;6.03;;
12792;SDS011;6460;42.684;23.260;2022-12-18T04:10:46;7.63;;;5.73;;
12792;SDS011;6460;42.684;23.260;2022-12-18T04:13:22;9.03;;;6.90;;
12792;SDS011;6460;42.684;23.260;2022-12-18T04:15:49;9.40;;;6.87;;
12792;SDS011;6460;42.684;23.260;2022-12-18T04:18:17;9.70;;;6.97;;
12792;SDS011;6460;42.684;23.260;2022-12-18T04:20:43;8.10;;;6.30;;
12792;SDS011;6460;42.684;23.260;2022-12-18T04:23:10;10.40;;;6.80;;
12792;SDS011;6460;42.684;23.260;2022-12-18T04:25:37;8.53;;;6.17;;
12792;SDS011;6460;42.684;23.260;2022-12-18T04:28:04;9.30;;;6.20;;
12792;SDS011;6460;42.684;23.260;2022-12-18T04:30:32;8.77;;;6.57;;
12792;SDS011;6460;42.684;23.260;2022-12-18T04:32:59;9.73;;;6.70;;
12792;SDS011;6460;42.684;23.260;2022-12-18T04:35:26;11.67;;;8.20;;
12792;SDS011;6460;42.684;23.260;2022-12-18T04:37:53;12.07;;;7.97;;
12792;SDS011;6460;42.684;23.260;2022-12-18T04:40:20;10.63;;;7.23;;
12792;SDS011;6460;42.684;23.260;2022-12-18T04:42:46;11.97;;;8.43;;
12792;SDS011;6460;42.684;23.260;2022-12-18T04:45:13;11.93;;;8.10;;
12792;SDS011;6460;42.684;23.260;2022-12-18T04:47:42;11.63;;;7.83;;
12792;SDS011;6460;42.684;23.260;2022-12-18T04:50:09;11.47;;;8.03;;
12792;SDS011;6460;42.684;23.260;2022-12-18T04:52:36;12.60;;;8.07;;
12792;SDS011;6460;42.684;23.260;2022-12-18T04:55:03;9.67;;;7.40;;
12792;SDS011;6460;42.684;23.260;2022-12-18T04:57:30;11.37;;;8.17;;
12792;SDS011;6460;42.684;23.260;2022-12-18T04:59:57;11.53;;;8.20;;
12792;SDS011;6460;42.684;23.260;2022-12-18T05:02:23;12.87;;;7.23;;
12792;SDS011;6460;42.684;23.260;2022-12-18T05:04:52;10.97;;;7.90;;
12792;SDS011;6460;42.684;23.260;2022-12-18T05:07:19;12.17;;;8.77;;
12792;SDS011;6460;42.684;23.260;2022-12-18T05:09:46;13.53;;;9.13;;
12792;SDS011;6460;42.684;23.260;2022-12-18T05:12:12;15.70;;;9.87;;
12792;SDS011;6460;42.684;23.260;2022-12-18T05:14:39;13.23;;;8.37;;
12792;SDS011;6460;42.684;23.260;2022-12-18T05:17:06;16.33;;;10.47;;
12792;SDS011;6460;42.684;23.260;2022-12-18T05:19:33;14.80;;;10.17;;
12792;SDS011;6460;42.684;23.260;2022-12-18T05:22:01;13.80;;;9.60;;
12792;SDS011;6460;42.684;23.260;2022-12-18T05:24:28;14.13;;;9.13;;
12792;SDS011;6460;42.684;23.260;2022-12-18T05:26:55;14.13;;;9.50;;
12792;SDS011;6460;42.684;23.260;2022-12-18T05:29:22;14.07;;;9.60;;
12792;SDS011;6460;42.684;23.260;2022-12-18T05:31:49;11.87;;;9.00;;
12792;SDS011;6460;42.684;23.260;2022-12-18T05:34:16;15.07;;;9.40;;
12792;SDS011;6460;42.684;23.260;2022-12-18T05:36:43;12.53;;;9.27;;
12792;SDS011;6460;42.684;23.260;2022-12-18T05:39:11;11.77;;;7.80;;
12792;SDS011;6460;42.684;23.260;2022-12-18T05:41:38;15.07;;;10.20;;
12792;SDS011;6460;42.684;23.260;2022-12-18T05:44:05;12.13;;;9.00;;
12792;SDS011;6460;42.684;23.260;2022-12-18T05:46:32;16.97;;;9.40;;
12792;SDS011;6460;42.684;23.260;2022-12-18T05:48:59;14.97;;;9.53;;
12792;SDS011;6460;42.684;23.260;2022-12-18T05:51:26;15.93;;;10.23;;
12792;SDS011;6460;42.684;23.260;2022-12-18T05:53:53;15.30;;;10.07;;
12792;SDS011;6460;42.684;23.260;2022-12-18T05:56:22;15.63;;;10.37;;
12792;SDS011;6460;42.684;23.260;2022-12-18T05:58:51;15.33;;;10.37;;
12792;SDS011;6460;42.684;23.260;2022-12-18T06:01:20;17.27;;;10.20;;
12792;SDS011;6460;42.684;23.260;2022-12-18T06:03:48;15.80;;;10.47;;
12792;SDS011;6460;42.684;23.260;2022-12-18T06:06:15;17.97;;;12.00;;
12792;SDS011;6460;42.684;23.260;2022-12-18T06:08:43;17.53;;;10.97;;
12792;SDS011;6460;42.684;23.260;2022-12-18T06:11:10;16.37;;;10.67;;
12792;SDS011;6460;42.684;23.260;2022-12-18T06:13:39;16.37;;;11.20;;
12792;SDS011;6460;42.684;23.260;2022-12-18T06:16:06;15.97;;;10.87;;
12792;SDS011;6460;42.684;23.260;2022-12-18T06:18:34;15.40;;;10.20;;
12792;SDS011;6460;42.684;23.260;2022-12-18T06:21:01;15.07;;;9.67;;
12792;SDS011;6460;42.684;23.260;2022-12-18T06:23:28;15.30;;;9.57;;
12792;SDS011;6460;42.684;23.260;2022-12-18T06:25:55;16.37;;;10.70;;
12792;SDS011;6460;42.684;23.260;2022-12-18T06:28:24;15.90;;;10.90;;
12792;SDS011;6460;42.684;23.260;2022-12-18T06:30:52;15.93;;;10.80;;
12792;SDS011;6460;42.684;23.260;2022-12-18T06:33:19;14.33;;;9.03;;
12792;SDS011;6460;42.684;23.260;2022-12-18T06:35:46;18.83;;;12.00;;
12792;SDS011;6460;42.684;23.260;2022-12-18T06:38:13;16.17;;;10.67;;
12792;SDS011;6460;42.684;23.260;2022-12-18T06:40:39;15.10;;;10.20;;
12792;SDS011;6460;42.684;23.260;2022-12-18T06:43:06;16.07;;;10.67;;
12792;SDS011;6460;42.684;23.260;2022-12-18T06:45:33;14.03;;;10.20;;
12792;SDS011;6460;42.684;23.260;2022-12-18T06:48:02;15.87;;;11.03;;
12792;SDS011;6460;42.684;23.260;2022-12-18T06:50:29;17.27;;;11.90;;
12792;SDS011;6460;42.684;23.260;2022-12-18T06:52:56;15.33;;;10.43;;
12792;SDS011;6460;42.684;23.260;2022-12-18T06:55:22;16.80;;;11.37;;
12792;SDS011;6460;42.684;23.260;2022-12-18T06:57:49;21.17;;;11.60;;
12792;SDS011;6460;42.684;23.260;2022-12-18T07:00:16;17.07;;;12.23;;
12792;SDS011;6460;42.684;23.260;2022-12-18T07:02:44;15.23;;;10.30;;
12792;SDS011;6460;42.684;23.260;2022-12-18T07:05:12;17.17;;;11.17;;
12792;SDS011;6460;42.684;23.260;2022-12-18T07:07:39;15.97;;;9.63;;
12792;SDS011;6460;42.684;23.260;2022-12-18T07:10:06;15.77;;;9.67;;
12792;SDS011;6460;42.684;23.260;2022-12-18T07:12:33;21.90;;;9.40;;
12792;SDS011;6460;42.684;23.260;2022-12-18T07:15:00;14.50;;;9.60;;
12792;SDS011;6460;42.684;23.260;2022-12-18T07:17:28;16.67;;;11.60;;
12792;SDS011;6460;42.684;23.260;2022-12-18T07:19:54;16.10;;;10.57;;
12792;SDS011;6460;42.684;23.260;2022-12-18T07:22:23;15.30;;;10.83;;
12792;SDS011;6460;42.684;23.260;2022-12-18T07:24:51;15.97;;;11.23;;
12792;SDS011;6460;42.684;23.260;2022-12-18T07:27:18;15.67;;;10.40;;
12792;SDS011;6460;42.684;23.260;2022-12-18T07:29:45;15.87;;;10.77;;
12792;SDS011;6460;42.684;23.260;2022-12-18T07:32:11;16.80;;;11.53;;
12792;SDS011;6460;42.684;23.260;2022-12-18T07:34:38;15.03;;;10.60;;
12792;SDS011;6460;42.684;23.260;2022-12-18T07:37:05;16.53;;;10.80;;
12792;SDS011;6460;42.684;23.260;2022-12-18T07:39:33;15.30;;;10.87;;
12792;SDS011;6460;42.684;23.260;2022-12-18T07:42:00;15.20;;;10.63;;
12792;SDS011;6460;42.684;23.260;2022-12-18T07:44:45;19.83;;;13.13;;
12792;SDS011;6460;42.684;23.260;2022-12-18T07:47:11;17.23;;;10.97;;
12792;SDS011;6460;42.684;23.260;2022-12-18T07:49:38;18.20;;;12.03;;
12792;SDS011;6460;42.684;23.260;2022-12-18T07:52:05;19.23;;;11.77;;
12792;SDS011;6460;42.684;23.260;2022-12-18T07:54:34;18.47;;;11.97;;
12792;SDS011;6460;42.684;23.260;2022-12-18T07:57:01;17.00;;;11.27;;
12792;SDS011;6460;42.684;23.260;2022-12-18T07:59:28;19.57;;;12.77;;
12792;SDS011;6460;42.684;23.260;2022-12-18T08:01:55;19.57;;;13.80;;
12792;SDS011;6460;42.684;23.260;2022-12-18T08:04:22;22.30;;;13.97;;
12792;SDS011;6460;42.684;23.260;2022-12-18T08:06:48;26.93;;;16.07;;
12792;SDS011;6460;42.684;23.260;2022-12-18T08:09:15;24.30;;;16.57;;
12792;SDS011;6460;42.684;23.260;2022-12-18T08:11:44;22.50;;;15.27;;
12792;SDS011;6460;42.684;23.260;2022-12-18T08:14:11;22.07;;;14.10;;
12792;SDS011;6460;42.684;23.260;2022-12-18T08:16:38;19.40;;;12.33;;
12792;SDS011;6460;42.684;23.260;2022-12-18T08:19:05;21.83;;;13.90;;
12792;SDS011;6460;42.684;23.260;2022-12-18T08:21:32;25.47;;;15.13;;
12792;SDS011;6460;42.684;23.260;2022-12-18T08:24:04;20.03;;;13.67;;
12792;SDS011;6460;42.684;23.260;2022-12-18T08:26:31;15.23;;;10.23;;
12792;SDS011;6460;42.684;23.260;2022-12-18T08:29:02;22.07;;;14.23;;
12792;SDS011;6460;42.684;23.260;2022-12-18T08:31:29;20.67;;;14.43;;
12792;SDS011;6460;42.684;23.260;2022-12-18T08:33:58;22.50;;;14.20;;
12792;SDS011;6460;42.684;23.260;2022-12-18T08:36:25;23.17;;;14.77;;
12792;SDS011;6460;42.684;23.260;2022-12-18T08:38:52;23.00;;;14.40;;
12792;SDS011;6460;42.684;23.260;2022-12-18T08:41:20;22.07;;;15.13;;
12792;SDS011;6460;42.684;23.260;2022-12-18T08:43:48;22.37;;;14.30;;
12792;SDS011;6460;42.684;23.260;2022-12-18T08:46:34;23.60;;;14.93;;
12792;SDS011;6460;42.684;23.260;2022-12-18T08:49:05;23.63;;;15.33;;
12792;SDS011;6460;42.684;23.260;2022-12-18T08:51:33;22.47;;;14.50;;
12792;SDS011;6460;42.684;23.260;2022-12-18T08:54:02;20.53;;;13.40;;
12792;SDS011;6460;42.684;23.260;2022-12-18T08:56:29;21.47;;;13.27;;
12792;SDS011;6460;42.684;23.260;2022-12-18T08:58:58;20.07;;;13.33;;
12792;SDS011;6460;42.684;23.260;2022-12-18T09:01:26;23.73;;;16.23;;
12792;SDS011;6460;42.684;23.260;2022-12-18T09:03:55;23.37;;;15.77;;
12792;SDS011;6460;42.684;23.260;2022-12-18T09:06:22;22.67;;;14.50;;
12792;SDS011;6460;42.684;23.260;2022-12-18T09:08:51;22.87;;;13.50;;
12792;SDS011;6460;42.684;23.260;2022-12-18T09:11:19;24.97;;;14.63;;
12792;SDS011;6460;42.684;23.260;2022-12-18T09:13:48;23.03;;;14.33;;
12792;SDS011;6460;42.684;23.260;2022-12-18T09:16:16;22.30;;;14.37;;
12792;SDS011;6460;42.684;23.260;2022-12-18T09:18:44;21.67;;;14.63;;
12792;SDS011;6460;42.684;23.260;2022-12-18T09:21:14;23.97;;;14.93;;
12792;SDS011;6460;42.684;23.260;2022-12-18T09:23:42;20.93;;;13.77;;
12792;SDS011;6460;42.684;23.260;2022-12-18T09:26:10;23.37;;;14.47;;
12792;SDS011;6460;42.684;23.260;2022-12-18T09:28:37;23.13;;;15.27;;
12792;SDS011;6460;42.684;23.260;2022-12-18T09:31:05;19.87;;;12.70;;
12792;SDS011;6460;42.684;23.260;2022-12-18T09:33:34;21.57;;;13.20;;
12792;SDS011;6460;42.684;23.260;2022-12-18T09:36:01;20.23;;;13.63;;
12792;SDS011;6460;42.684;23.260;2022-12-18T09:38:32;22.13;;;13.17;;
12792;SDS011;6460;42.684;23.260;2022-12-18T09:41:03;20.87;;;13.20;;
12792;SDS011;6460;42.684;23.260;2022-12-18T09:43:41;18.97;;;12.13;;
12792;SDS011;6460;42.684;23.260;2022-12-18T09:46:15;20.27;;;13.90;;
12792;SDS011;6460;42.684;23.260;2022-12-18T09:48:46;20.37;;;12.93;;
12792;SDS011;6460;42.684;23.260;2022-12-18T09:51:18;17.50;;;11.87;;
12792;SDS011;6460;42.684;23.260;2022-12-18T09:53:51;18.77;;;12.63;;
12792;SDS011;6460;42.684;23.260;2022-12-18T09:56:24;18.10;;;11.50;;
12792;SDS011;6460;42.684;23.260;2022-12-18T09:58:56;18.83;;;11.93;;
12792;SDS011;6460;42.684;23.260;2022-12-18T10:01:26;18.50;;;12.10;;
12792;SDS011;6460;42.684;23.260;2022-12-18T10:03:54;21.03;;;12.57;;
12792;SDS011;6460;42.684;23.260;2022-12-18T10:06:23;19.30;;;12.03;;
12792;SDS011;6460;42.684;23.260;2022-12-18T10:09:00;18.60;;;12.10;;
12792;SDS011;6460;42.684;23.260;2022-12-18T10:11:34;20.23;;;11.60;;
12792;SDS011;6460;42.684;23.260;2022-12-18T10:14:12;19.03;;;11.53;;
12792;SDS011;6460;42.684;23.260;2022-12-18T10:16:49;19.33;;;12.87;;
12792;SDS011;6460;42.684;23.260;2022-12-18T10:19:29;17.87;;;11.33;;
12792;SDS011;6460;42.684;23.260;2022-12-18T10:22:10;17.83;;;11.43;;
12792;SDS011;6460;42.684;23.260;2022-12-18T10:24:47;15.87;;;11.10;;
12792;SDS011;6460;42.684;23.260;2022-12-18T10:27:21;18.60;;;11.10;;
12792;SDS011;6460;42.684;23.260;2022-12-18T10:29:51;17.87;;;12.20;;
12792;SDS011;6460;42.684;23.260;2022-12-18T10:32:20;18.60;;;10.73;;
12792;SDS011;6460;42.684;23.260;2022-12-18T10:34:49;17.83;;;10.70;;
12792;SDS011;6460;42.684;23.260;2022-12-18T10:37:18;18.50;;;11.63;;
12792;SDS011;6460;42.684;23.260;2022-12-18T10:39:47;17.27;;;12.13;;
12792;SDS011;6460;42.684;23.260;2022-12-18T10:42:33;15.67;;;10.23;;
12792;SDS011;6460;42.684;23.260;2022-12-18T10:45:01;19.93;;;12.00;;
12792;SDS011;6460;42.684;23.260;2022-12-18T10:47:30;17.63;;;11.80;;
12792;SDS011;6460;42.684;23.260;2022-12-18T10:50:00;17.93;;;11.57;;
12792;SDS011;6460;42.684;23.260;2022-12-18T10:52:27;18.63;;;9.83;;
12792;SDS011;6460;42.684;23.260;2022-12-18T10:55:05;17.10;;;11.17;;
12792;SDS011;6460;42.684;23.260;2022-12-18T10:57:42;17.83;;;10.73;;
12792;SDS011;6460;42.684;23.260;2022-12-18T11:02:56;16.97;;;10.77;;
12792;SDS011;6460;42.684;23.260;2022-12-18T11:06:04;18.00;;;10.47;;
12792;SDS011;6460;42.684;23.260;2022-12-18T11:08:40;14.67;;;10.00;;
12792;SDS011;6460;42.684;23.260;2022-12-18T11:14:41;17.30;;;10.47;;
12792;SDS011;6460;42.684;23.260;2022-12-18T11:17:18;16.77;;;10.83;;
12792;SDS011;6460;42.684;23.260;2022-12-18T11:20:00;16.17;;;10.00;;
12792;SDS011;6460;42.684;23.260;2022-12-18T11:22:44;17.27;;;11.07;;
12792;SDS011;6460;42.684;23.260;2022-12-18T11:25:22;17.53;;;10.17;;
12792;SDS011;6460;42.684;23.260;2022-12-18T11:27:51;15.43;;;9.37;;
12792;SDS011;6460;42.684;23.260;2022-12-18T11:30:25;15.37;;;9.63;;
12792;SDS011;6460;42.684;23.260;2022-12-18T11:33:02;14.27;;;9.47;;
12792;SDS011;6460;42.684;23.260;2022-12-18T11:35:40;17.20;;;10.77;;
12792;SDS011;6460;42.684;23.260;2022-12-18T11:38:17;15.37;;;9.53;;
12792;SDS011;6460;42.684;23.260;2022-12-18T11:40:51;13.50;;;8.77;;
12792;SDS011;6460;42.684;23.260;2022-12-18T11:43:29;14.77;;;9.70;;
12792;SDS011;6460;42.684;23.260;2022-12-18T11:46:04;16.00;;;9.87;;
12792;SDS011;6460;42.684;23.260;2022-12-18T11:48:37;13.97;;;9.57;;
12792;SDS011;6460;42.684;23.260;2022-12-18T11:51:10;14.63;;;8.93;;
12792;SDS011;6460;42.684;23.260;2022-12-18T11:54:08;20.50;;;12.07;;
12792;SDS011;6460;42.684;23.260;2022-12-18T11:56:45;15.33;;;10.33;;
12792;SDS011;6460;42.684;23.260;2022-12-18T11:59:20;18.97;;;11.43;;
12792;SDS011;6460;42.684;23.260;2022-12-18T12:01:58;15.77;;;9.57;;
12792;SDS011;6460;42.684;23.260;2022-12-18T12:04:56;18.27;;;10.90;;
12792;SDS011;6460;42.684;23.260;2022-12-18T12:07:43;17.90;;;10.17;;
12792;SDS011;6460;42.684;23.260;2022-12-18T12:10:24;18.37;;;11.67;;
12792;SDS011;6460;42.684;23.260;2022-12-18T12:13:06;16.50;;;10.33;;
12792;SDS011;6460;42.684;23.260;2022-12-18T12:15:43;17.47;;;11.23;;
12792;SDS011;6460;42.684;23.260;2022-12-18T12:18:24;16.63;;;10.97;;
12792;SDS011;6460;42.684;23.260;2022-12-18T12:21:01;14.03;;;10.40;;
12792;SDS011;6460;42.684;23.260;2022-12-18T12:23:35;16.77;;;10.80;;
12792;SDS011;6460;42.684;23.260;2022-12-18T12:26:13;17.70;;;10.67;;
12792;SDS011;6460;42.684;23.260;2022-12-18T12:31:47;16.33;;;10.93;;
12792;SDS011;6460;42.684;23.260;2022-12-18T12:34:32;17.00;;;11.50;;
12792;SDS011;6460;42.684;23.260;2022-12-18T12:37:10;19.30;;;12.07;;
12792;SDS011;6460;42.684;23.260;2022-12-18T12:39:47;19.97;;;11.90;;
12792;SDS011;6460;42.684;23.260;2022-12-18T12:42:17;18.20;;;12.13;;
12792;SDS011;6460;42.684;23.260;2022-12-18T12:45:07;20.20;;;12.97;;
12792;SDS011;6460;42.684;23.260;2022-12-18T12:47:44;19.20;;;12.60;;
12792;SDS011;6460;42.684;23.260;2022-12-18T12:50:16;21.30;;;13.30;;
12792;SDS011;6460;42.684;23.260;2022-12-18T12:52:45;21.07;;;12.87;;
12792;SDS011;6460;42.684;23.260;2022-12-18T12:55:16;19.23;;;12.50;;
12792;SDS011;6460;42.684;23.260;2022-12-18T12:57:48;18.53;;;12.53;;
12792;SDS011;6460;42.684;23.260;2022-12-18T13:00:21;17.07;;;11.10;;
12792;SDS011;6460;42.684;23.260;2022-12-18T13:02:50;22.00;;;12.47;;
12792;SDS011;6460;42.684;23.260;2022-12-18T13:05:30;18.47;;;11.67;;
12792;SDS011;6460;42.684;23.260;2022-12-18T13:08:02;19.37;;;12.27;;
12792;SDS011;6460;42.684;23.260;2022-12-18T13:10:33;19.67;;;11.57;;
12792;SDS011;6460;42.684;23.260;2022-12-18T13:13:02;17.73;;;12.00;;
12792;SDS011;6460;42.684;23.260;2022-12-18T13:15:33;18.33;;;11.93;;
12792;SDS011;6460;42.684;23.260;2022-12-18T13:18:16;17.30;;;11.63;;
12792;SDS011;6460;42.684;23.260;2022-12-18T13:21:01;18.27;;;11.17;;
12792;SDS011;6460;42.684;23.260;2022-12-18T13:23:49;17.63;;;11.60;;
12792;SDS011;6460;42.684;23.260;2022-12-18T13:29:07;20.30;;;11.50;;
12792;SDS011;6460;42.684;23.260;2022-12-18T13:37:53;20.07;;;12.23;;
12792;SDS011;6460;42.684;23.260;2022-12-18T13:43:31;19.57;;;12.37;;
12792;SDS011;6460;42.684;23.260;2022-12-18T13:46:04;18.83;;;12.13;;
12792;SDS011;6460;42.684;23.260;2022-12-18T13:48:33;20.60;;;11.67;;
12792;SDS011;6460;42.684;23.260;2022-12-18T13:51:03;17.70;;;11.57;;
12792;SDS011;6460;42.684;23.260;2022-12-18T13:53:44;19.13;;;11.73;;
12792;SDS011;6460;42.684;23.260;2022-12-18T13:56:16;17.73;;;11.13;;
12792;SDS011;6460;42.684;23.260;2022-12-18T13:59:12;20.03;;;12.50;;
12792;SDS011;6460;42.684;23.260;2022-12-18T14:01:42;13.57;;;9.70;;
12792;SDS011;6460;42.684;23.260;2022-12-18T14:04:10;16.37;;;10.63;;
12792;SDS011;6460;42.684;23.260;2022-12-18T14:06:55;16.80;;;10.60;;
12792;SDS011;6460;42.684;23.260;2022-12-18T14:09:29;16.43;;;10.30;;
12792;SDS011;6460;42.684;23.260;2022-12-18T14:11:57;14.33;;;9.47;;
12792;SDS011;6460;42.684;23.260;2022-12-18T14:14:39;18.23;;;11.07;;
12792;SDS011;6460;42.684;23.260;2022-12-18T14:17:09;15.87;;;10.10;;
12792;SDS011;6460;42.684;23.260;2022-12-18T14:19:40;15.70;;;9.43;;
12792;SDS011;6460;42.684;23.260;2022-12-18T14:22:15;16.80;;;9.57;;
12792;SDS011;6460;42.684;23.260;2022-12-18T14:25:04;12.50;;;8.77;;
12792;SDS011;6460;42.684;23.260;2022-12-18T14:27:42;14.20;;;8.87;;
12792;SDS011;6460;42.684;23.260;2022-12-18T14:30:25;14.50;;;8.13;;
12792;SDS011;6460;42.684;23.260;2022-12-18T14:33:01;15.27;;;10.37;;
12792;SDS011;6460;42.684;23.260;2022-12-18T14:35:30;14.20;;;9.23;;
12792;SDS011;6460;42.684;23.260;2022-12-18T14:38:10;17.83;;;10.47;;
12792;SDS011;6460;42.684;23.260;2022-12-18T14:40:49;19.40;;;11.70;;
12792;SDS011;6460;42.684;23.260;2022-12-18T14:43:19;15.63;;;10.03;;
12792;SDS011;6460;42.684;23.260;2022-12-18T14:45:47;20.07;;;12.43;;
12792;SDS011;6460;42.684;23.260;2022-12-18T14:48:16;20.77;;;12.20;;
12792;SDS011;6460;42.684;23.260;2022-12-18T14:50:54;23.47;;;13.03;;
12792;SDS011;6460;42.684;23.260;2022-12-18T14:53:27;24.13;;;12.17;;
12792;SDS011;6460;42.684;23.260;2022-12-18T14:56:02;21.87;;;12.50;;
12792;SDS011;6460;42.684;23.260;2022-12-18T14:58:44;20.27;;;11.17;;
12792;SDS011;6460;42.684;23.260;2022-12-18T15:01:21;19.97;;;11.80;;
12792;SDS011;6460;42.684;23.260;2022-12-18T15:03:50;21.87;;;13.10;;
12792;SDS011;6460;42.684;23.260;2022-12-18T15:06:30;17.80;;;10.53;;
12792;SDS011;6460;42.684;23.260;2022-12-18T15:08:59;15.87;;;10.33;;
12792;SDS011;6460;42.684;23.260;2022-12-18T15:11:33;17.33;;;10.83;;
12792;SDS011;6460;42.684;23.260;2022-12-18T15:14:21;19.20;;;11.57;;